Terminal Aerodrome Forecast
Issued by NWS

Home | Current Version | Previous Version | Text Only | Print | Product List | Glossary On
Versions: 1 2 3 4 5 6 7 8 9 10 11 12 13 14 15 16 17 18 19 20 21 22 23
762
FTAK31 PANC 221124
TAFADL
TAF
PADL 221124Z 2212/2312 06005KT P6SM VCSH BKN025 BKN030
     FM222000 08014G22KT P6SM VCSH FEW010 OVC020
     FM230500 07018G28KT 6SM -RA BR SCT010 OVC020
      AMD LTD TO CLD VIS AND WIND TIL 221600=

USA.gov is the U.S. government's official web portal to all federal, state and local government web resources and services.